sensor_id;sensor_type;location;lat;lon;timestamp;P1;durP1;ratioP1;P2;durP2;ratioP2
72265;SDS011;60194;43.542;-5.710;2022-07-22T08:13:47;17.15;;;6.03;;
72265;SDS011;60194;43.542;-5.710;2022-07-22T08:16:13;14.13;;;6.07;;
72265;SDS011;60194;43.542;-5.710;2022-07-22T08:18:39;14.52;;;6.25;;
72265;SDS011;60194;43.542;-5.710;2022-07-22T08:21:05;13.33;;;5.60;;
72265;SDS011;60194;43.542;-5.710;2022-07-22T08:23:31;14.95;;;5.68;;
72265;SDS011;60194;43.542;-5.710;2022-07-22T08:25:58;13.32;;;5.50;;
72265;SDS011;60194;43.542;-5.710;2022-07-22T08:28:24;14.73;;;6.00;;
72265;SDS011;60194;43.542;-5.710;2022-07-22T08:30:49;10.77;;;5.25;;
72265;SDS011;60194;43.542;-5.710;2022-07-22T08:33:15;11.65;;;5.10;;
72265;SDS011;60194;43.542;-5.710;2022-07-22T08:35:41;15.10;;;5.40;;
72265;SDS011;60194;43.542;-5.710;2022-07-22T08:38:07;12.52;;;5.60;;
72265;SDS011;60194;43.542;-5.710;2022-07-22T08:40:33;16.35;;;6.05;;
72265;SDS011;60194;43.542;-5.710;2022-07-22T08:42:59;12.43;;;5.70;;
72265;SDS011;60194;43.542;-5.710;2022-07-22T08:45:28;18.65;;;5.97;;
72265;SDS011;60194;43.542;-5.710;2022-07-22T08:47:54;19.48;;;7.35;;
72265;SDS011;60194;43.542;-5.710;2022-07-22T08:50:20;16.95;;;6.35;;
72265;SDS011;60194;43.542;-5.710;2022-07-22T08:52:46;14.70;;;5.70;;
72265;SDS011;60194;43.542;-5.710;2022-07-22T08:55:11;10.88;;;5.85;;
72265;SDS011;60194;43.542;-5.710;2022-07-22T08:57:37;11.70;;;5.77;;
72265;SDS011;60194;43.542;-5.710;2022-07-22T09:00:08;12.50;;;5.85;;
72265;SDS011;60194;43.542;-5.710;2022-07-22T09:02:36;10.80;;;5.20;;
72265;SDS011;60194;43.542;-5.710;2022-07-22T09:05:03;15.23;;;6.23;;
72265;SDS011;60194;43.542;-5.710;2022-07-22T09:07:38;11.93;;;5.53;;
72265;SDS011;60194;43.542;-5.710;2022-07-22T09:10:11;18.52;;;6.20;;
72265;SDS011;60194;43.542;-5.710;2022-07-22T09:13:00;13.00;;;5.07;;
72265;SDS011;60194;43.542;-5.710;2022-07-22T09:15:26;13.15;;;4.68;;
72265;SDS011;60194;43.542;-5.710;2022-07-22T09:17:56;10.50;;;4.87;;
72265;SDS011;60194;43.542;-5.710;2022-07-22T09:20:22;13.25;;;5.22;;
72265;SDS011;60194;43.542;-5.710;2022-07-22T09:22:49;16.83;;;5.93;;
72265;SDS011;60194;43.542;-5.710;2022-07-22T09:25:26;15.07;;;5.47;;
72265;SDS011;60194;43.542;-5.710;2022-07-22T09:30:32;14.75;;;6.35;;
72265;SDS011;60194;43.542;-5.710;2022-07-22T09:33:02;16.02;;;6.50;;
72265;SDS011;60194;43.542;-5.710;2022-07-22T09:35:28;17.55;;;6.70;;
72265;SDS011;60194;43.542;-5.710;2022-07-22T09:37:56;20.30;;;7.67;;
72265;SDS011;60194;43.542;-5.710;2022-07-22T09:40:24;13.18;;;6.70;;
72265;SDS011;60194;43.542;-5.710;2022-07-22T09:42:54;20.38;;;8.35;;
72265;SDS011;60194;43.542;-5.710;2022-07-22T09:45:22;28.98;;;9.73;;
72265;SDS011;60194;43.542;-5.710;2022-07-22T09:47:49;20.83;;;9.93;;
72265;SDS011;60194;43.542;-5.710;2022-07-22T09:50:16;27.00;;;11.65;;
72265;SDS011;60194;43.542;-5.710;2022-07-22T09:52:43;23.77;;;11.60;;
72265;SDS011;60194;43.542;-5.710;2022-07-22T09:55:09;21.15;;;11.60;;
72265;SDS011;60194;43.542;-5.710;2022-07-22T09:57:35;24.80;;;11.83;;
72265;SDS011;60194;43.542;-5.710;2022-07-22T10:00:01;23.13;;;9.20;;
72265;SDS011;60194;43.542;-5.710;2022-07-22T10:02:27;16.80;;;7.93;;
72265;SDS011;60194;43.542;-5.710;2022-07-22T10:04:53;21.05;;;7.35;;
72265;SDS011;60194;43.542;-5.710;2022-07-22T10:07:19;24.40;;;8.50;;
72265;SDS011;60194;43.542;-5.710;2022-07-22T10:09:45;17.80;;;8.13;;
72265;SDS011;60194;43.542;-5.710;2022-07-22T10:12:11;18.95;;;7.70;;
72265;SDS011;60194;43.542;-5.710;2022-07-22T10:14:37;19.27;;;7.25;;
72265;SDS011;60194;43.542;-5.710;2022-07-22T10:17:03;17.67;;;8.70;;
72265;SDS011;60194;43.542;-5.710;2022-07-22T10:19:29;18.90;;;8.40;;
72265;SDS011;60194;43.542;-5.710;2022-07-22T10:21:54;24.13;;;8.30;;
72265;SDS011;60194;43.542;-5.710;2022-07-22T10:24:20;25.58;;;9.20;;
72265;SDS011;60194;43.542;-5.710;2022-07-22T10:26:49;28.60;;;9.25;;
72265;SDS011;60194;43.542;-5.710;2022-07-22T10:29:53;19.20;;;8.10;;
72265;SDS011;60194;43.542;-5.710;2022-07-22T10:34:44;23.98;;;9.20;;
72265;SDS011;60194;43.542;-5.710;2022-07-22T10:45:25;14.45;;;7.32;;
72265;SDS011;60194;43.542;-5.710;2022-07-22T10:48:01;18.27;;;6.97;;
72265;SDS011;60194;43.542;-5.710;2022-07-22T10:53:04;12.38;;;5.03;;
72265;SDS011;60194;43.542;-5.710;2022-07-22T10:55:34;18.37;;;5.43;;
72265;SDS011;60194;43.542;-5.710;2022-07-22T10:58:18;10.85;;;6.13;;
72265;SDS011;60194;43.542;-5.710;2022-07-22T11:01:07;15.95;;;6.03;;
72265;SDS011;60194;43.542;-5.710;2022-07-22T11:03:35;12.10;;;5.18;;
72265;SDS011;60194;43.542;-5.710;2022-07-22T11:08:43;15.80;;;9.10;;
72265;SDS011;60194;43.542;-5.710;2022-07-22T11:11:09;13.35;;;5.50;;
72265;SDS011;60194;43.542;-5.710;2022-07-22T11:13:35;10.03;;;4.60;;
72265;SDS011;60194;43.542;-5.710;2022-07-22T11:18:47;10.90;;;5.75;;
72265;SDS011;60194;43.542;-5.710;2022-07-22T11:21:18;11.93;;;5.40;;
72265;SDS011;60194;43.542;-5.710;2022-07-22T11:23:47;15.27;;;5.97;;
72265;SDS011;60194;43.542;-5.710;2022-07-22T11:26:14;11.03;;;4.27;;
72265;SDS011;60194;43.542;-5.710;2022-07-22T11:28:41;12.00;;;3.75;;
72265;SDS011;60194;43.542;-5.710;2022-07-22T11:31:08;9.30;;;3.80;;
72265;SDS011;60194;43.542;-5.710;2022-07-22T11:33:35;11.75;;;3.35;;
72265;SDS011;60194;43.542;-5.710;2022-07-22T11:36:04;7.70;;;3.57;;
72265;SDS011;60194;43.542;-5.710;2022-07-22T11:41:27;7.97;;;3.28;;
72265;SDS011;60194;43.542;-5.710;2022-07-22T11:43:53;8.18;;;3.25;;
72265;SDS011;60194;43.542;-5.710;2022-07-22T11:46:19;9.60;;;2.77;;
72265;SDS011;60194;43.542;-5.710;2022-07-22T11:48:45;10.00;;;3.70;;
72265;SDS011;60194;43.542;-5.710;2022-07-22T11:51:11;10.15;;;4.00;;
72265;SDS011;60194;43.542;-5.710;2022-07-22T11:53:38;8.10;;;3.20;;
72265;SDS011;60194;43.542;-5.710;2022-07-22T11:56:04;10.15;;;2.90;;
72265;SDS011;60194;43.542;-5.710;2022-07-22T11:58:38;13.45;;;3.45;;
72265;SDS011;60194;43.542;-5.710;2022-07-22T12:01:15;10.43;;;3.93;;
72265;SDS011;60194;43.542;-5.710;2022-07-22T12:03:44;10.40;;;3.08;;
72265;SDS011;60194;43.542;-5.710;2022-07-22T12:06:11;7.10;;;2.40;;
72265;SDS011;60194;43.542;-5.710;2022-07-22T12:08:41;9.35;;;2.70;;
72265;SDS011;60194;43.542;-5.710;2022-07-22T12:11:12;10.77;;;3.47;;
72265;SDS011;60194;43.542;-5.710;2022-07-22T12:13:42;9.37;;;3.00;;
72265;SDS011;60194;43.542;-5.710;2022-07-22T12:16:23;9.85;;;3.28;;
72265;SDS011;60194;43.542;-5.710;2022-07-22T12:18:54;12.05;;;3.63;;
72265;SDS011;60194;43.542;-5.710;2022-07-22T12:21:29;12.82;;;3.92;;
72265;SDS011;60194;43.542;-5.710;2022-07-22T12:24:03;8.25;;;3.17;;
72265;SDS011;60194;43.542;-5.710;2022-07-22T12:29:12;9.85;;;3.20;;
72265;SDS011;60194;43.542;-5.710;2022-07-22T12:32:24;9.23;;;2.70;;
72265;SDS011;60194;43.542;-5.710;2022-07-22T12:34:35;8.65;;;2.72;;
72265;SDS011;60194;43.542;-5.710;2022-07-22T12:42:24;7.13;;;2.65;;
72265;SDS011;60194;43.542;-5.710;2022-07-22T12:44:52;6.45;;;2.58;;
72265;SDS011;60194;43.542;-5.710;2022-07-22T12:53:07;5.93;;;2.77;;
72265;SDS011;60194;43.542;-5.710;2022-07-22T12:58:16;9.43;;;3.03;;
72265;SDS011;60194;43.542;-5.710;2022-07-22T13:01:00;9.35;;;2.83;;
72265;SDS011;60194;43.542;-5.710;2022-07-22T13:03:27;9.93;;;3.00;;
72265;SDS011;60194;43.542;-5.710;2022-07-22T13:05:54;11.15;;;3.00;;
72265;SDS011;60194;43.542;-5.710;2022-07-22T13:08:22;6.35;;;2.88;;
72265;SDS011;60194;43.542;-5.710;2022-07-22T13:10:48;8.07;;;2.90;;
72265;SDS011;60194;43.542;-5.710;2022-07-22T13:13:15;8.73;;;2.50;;
72265;SDS011;60194;43.542;-5.710;2022-07-22T13:15:40;9.33;;;3.40;;
72265;SDS011;60194;43.542;-5.710;2022-07-22T13:18:06;7.60;;;2.37;;
72265;SDS011;60194;43.542;-5.710;2022-07-22T13:20:31;8.15;;;2.83;;
72265;SDS011;60194;43.542;-5.710;2022-07-22T13:22:57;7.40;;;2.70;;
72265;SDS011;60194;43.542;-5.710;2022-07-22T13:25:22;9.07;;;2.70;;
72265;SDS011;60194;43.542;-5.710;2022-07-22T13:27:51;7.95;;;2.55;;
72265;SDS011;60194;43.542;-5.710;2022-07-22T13:30:17;9.07;;;3.60;;
72265;SDS011;60194;43.542;-5.710;2022-07-22T13:32:43;9.30;;;2.90;;
72265;SDS011;60194;43.542;-5.710;2022-07-22T13:35:08;7.93;;;2.70;;
72265;SDS011;60194;43.542;-5.710;2022-07-22T13:37:34;7.63;;;2.67;;
72265;SDS011;60194;43.542;-5.710;2022-07-22T13:40:00;7.30;;;2.72;;
72265;SDS011;60194;43.542;-5.710;2022-07-22T13:42:26;8.50;;;2.72;;
72265;SDS011;60194;43.542;-5.710;2022-07-22T13:44:51;9.30;;;2.87;;
72265;SDS011;60194;43.542;-5.710;2022-07-22T13:47:19;7.72;;;3.08;;
72265;SDS011;60194;43.542;-5.710;2022-07-22T13:49:45;9.43;;;2.30;;
72265;SDS011;60194;43.542;-5.710;2022-07-22T13:52:11;9.02;;;2.85;;
72265;SDS011;60194;43.542;-5.710;2022-07-22T13:54:37;7.82;;;2.80;;
72265;SDS011;60194;43.542;-5.710;2022-07-22T13:57:03;8.33;;;2.87;;
72265;SDS011;60194;43.542;-5.710;2022-07-22T13:59:29;10.57;;;2.80;;
72265;SDS011;60194;43.542;-5.710;2022-07-22T14:01:56;11.23;;;3.00;;
72265;SDS011;60194;43.542;-5.710;2022-07-22T14:04:22;9.93;;;3.08;;
72265;SDS011;60194;43.542;-5.710;2022-07-22T14:06:47;7.20;;;2.60;;
72265;SDS011;60194;43.542;-5.710;2022-07-22T14:09:13;8.20;;;2.35;;
72265;SDS011;60194;43.542;-5.710;2022-07-22T14:11:38;10.37;;;2.80;;
72265;SDS011;60194;43.542;-5.710;2022-07-22T14:14:04;11.73;;;3.00;;
72265;SDS011;60194;43.542;-5.710;2022-07-22T14:16:31;7.78;;;2.90;;
72265;SDS011;60194;43.542;-5.710;2022-07-22T14:19:00;7.47;;;2.60;;
72265;SDS011;60194;43.542;-5.710;2022-07-22T14:21:29;13.25;;;3.00;;
72265;SDS011;60194;43.542;-5.710;2022-07-22T14:23:55;13.53;;;2.90;;
72265;SDS011;60194;43.542;-5.710;2022-07-22T14:26:20;9.23;;;3.00;;
72265;SDS011;60194;43.542;-5.710;2022-07-22T14:28:46;10.83;;;2.83;;
72265;SDS011;60194;43.542;-5.710;2022-07-22T14:31:11;8.48;;;2.67;;
72265;SDS011;60194;43.542;-5.710;2022-07-22T14:33:37;9.70;;;2.40;;
72265;SDS011;60194;43.542;-5.710;2022-07-22T14:36:02;9.90;;;2.77;;
72265;SDS011;60194;43.542;-5.710;2022-07-22T14:38:28;8.20;;;2.55;;
72265;SDS011;60194;43.542;-5.710;2022-07-22T14:40:54;8.27;;;2.43;;
72265;SDS011;60194;43.542;-5.710;2022-07-22T14:43:19;13.68;;;2.90;;
72265;SDS011;60194;43.542;-5.710;2022-07-22T14:45:45;9.67;;;2.87;;
72265;SDS011;60194;43.542;-5.710;2022-07-22T14:48:10;9.83;;;2.27;;
72265;SDS011;60194;43.542;-5.710;2022-07-22T14:50:35;7.93;;;2.45;;
72265;SDS011;60194;43.542;-5.710;2022-07-22T14:53:01;7.27;;;2.47;;
72265;SDS011;60194;43.542;-5.710;2022-07-22T14:55:26;8.07;;;2.80;;
72265;SDS011;60194;43.542;-5.710;2022-07-22T14:57:52;10.82;;;3.08;;
72265;SDS011;60194;43.542;-5.710;2022-07-22T15:00:17;12.23;;;2.80;;
72265;SDS011;60194;43.542;-5.710;2022-07-22T15:02:43;10.60;;;3.63;;
72265;SDS011;60194;43.542;-5.710;2022-07-22T15:05:08;16.73;;;4.10;;
72265;SDS011;60194;43.542;-5.710;2022-07-22T15:07:34;11.75;;;3.53;;
72265;SDS011;60194;43.542;-5.710;2022-07-22T15:10:00;12.93;;;3.80;;
72265;SDS011;60194;43.542;-5.710;2022-07-22T15:12:25;15.70;;;3.60;;
72265;SDS011;60194;43.542;-5.710;2022-07-22T15:14:51;9.10;;;3.10;;
72265;SDS011;60194;43.542;-5.710;2022-07-22T15:17:16;9.88;;;3.63;;
72265;SDS011;60194;43.542;-5.710;2022-07-22T15:19:42;8.97;;;3.37;;
72265;SDS011;60194;43.542;-5.710;2022-07-22T15:22:08;8.10;;;2.73;;
72265;SDS011;60194;43.542;-5.710;2022-07-22T15:24:34;8.15;;;2.50;;
72265;SDS011;60194;43.542;-5.710;2022-07-22T15:27:00;10.70;;;3.08;;
72265;SDS011;60194;43.542;-5.710;2022-07-22T15:29:25;8.43;;;2.60;;
72265;SDS011;60194;43.542;-5.710;2022-07-22T15:31:51;9.65;;;2.92;;
72265;SDS011;60194;43.542;-5.710;2022-07-22T15:34:16;9.73;;;2.83;;
72265;SDS011;60194;43.542;-5.710;2022-07-22T15:36:42;14.38;;;3.17;;
72265;SDS011;60194;43.542;-5.710;2022-07-22T15:39:08;13.77;;;3.13;;
72265;SDS011;60194;43.542;-5.710;2022-07-22T15:41:34;10.40;;;2.40;;
72265;SDS011;60194;43.542;-5.710;2022-07-22T15:44:03;6.20;;;3.03;;
72265;SDS011;60194;43.542;-5.710;2022-07-22T15:46:30;13.93;;;3.13;;
72265;SDS011;60194;43.542;-5.710;2022-07-22T15:48:55;9.83;;;3.00;;
72265;SDS011;60194;43.542;-5.710;2022-07-22T15:51:21;10.52;;;2.78;;
72265;SDS011;60194;43.542;-5.710;2022-07-22T15:53:47;10.87;;;3.07;;
72265;SDS011;60194;43.542;-5.710;2022-07-22T15:56:13;10.77;;;2.70;;
72265;SDS011;60194;43.542;-5.710;2022-07-22T15:58:39;11.00;;;2.90;;
72265;SDS011;60194;43.542;-5.710;2022-07-22T16:01:23;8.93;;;2.63;;
72265;SDS011;60194;43.542;-5.710;2022-07-22T16:03:49;8.43;;;2.70;;
72265;SDS011;60194;43.542;-5.710;2022-07-22T16:06:14;10.63;;;3.10;;
72265;SDS011;60194;43.542;-5.710;2022-07-22T16:08:40;12.60;;;2.80;;
72265;SDS011;60194;43.542;-5.710;2022-07-22T16:11:06;7.32;;;3.13;;
72265;SDS011;60194;43.542;-5.710;2022-07-22T16:13:33;9.32;;;2.90;;
72265;SDS011;60194;43.542;-5.710;2022-07-22T16:15:58;8.33;;;3.23;;
72265;SDS011;60194;43.542;-5.710;2022-07-22T16:18:24;11.57;;;2.90;;
72265;SDS011;60194;43.542;-5.710;2022-07-22T16:20:49;10.67;;;3.00;;
72265;SDS011;60194;43.542;-5.710;2022-07-22T16:23:15;10.88;;;3.03;;
72265;SDS011;60194;43.542;-5.710;2022-07-22T16:25:40;10.90;;;3.40;;
